Flight Briefing for CPX227

Departure Arrival
Daniel K Inouye International Airport (PHNL)
Click to view FAA NOTAMS
Los Angeles International Airport (KLAX)
Click to view FAA NOTAMS
Departure Time Arrival Time
0930 UTC 1510 UTC
Aircraft Distance
B767-300BDSF 2267nm
Departure METAR Arrival METAR
PHNL 192153Z 10010KT 10SM -RA FEW022 SCT035 OVC100 21/19 A2991 RMK AO2 PRESFR SLP128 P0006 T02110189 KLAX 192153Z 23011KT 10SM FEW050 FEW160 13/M02 A3011 RMK AO2 SLP195 T01331022
Suggested Route
MKK4 CLUTS R465 CIVIT R585 AUDIA SNAXX RYDRR2


View recent IFR Routes data
Notes



Charts and Procedures

Charts for PHNL
No chart available
Charts for KLAX
No chart available

Ventusky Weather




{"cat":null,"equip":null,"transponder":null,"pbn":"PBN\/","maxpax":null,"oew":"0.0","mzfw":"0.0","mtow":"0.0","mlw":"0.0","maxfuel":"0.0"} DEVELOPMENTAL TEST USE ONLY